createdAt,value
2018-09-11T13:43:50.146Z,4.45
2018-09-11T13:46:18.518Z,8.20
2018-09-11T13:48:46.710Z,8.80
2018-09-11T13:51:14.894Z,8.25
2018-09-11T13:53:43.131Z,7.58
2018-09-11T13:56:11.379Z,6.10
2018-09-11T13:58:39.653Z,5.35
2018-09-11T14:01:08.224Z,4.60
2018-09-11T14:03:36.445Z,6.60
2018-09-11T14:06:04.662Z,5.22
2018-09-11T14:08:32.964Z,4.60
2018-09-11T14:11:01.215Z,6.25
2018-09-11T14:13:29.434Z,5.20
2018-09-11T14:15:57.663Z,5.10
2018-09-11T14:18:25.970Z,3.83
2018-09-11T14:20:54.227Z,5.78
2018-09-11T14:23:22.543Z,5.87
2018-09-11T14:25:50.809Z,4.58
2018-09-11T14:28:19.069Z,4.30
2018-09-11T14:30:47.303Z,5.55
2018-09-11T14:33:15.571Z,7.75
2018-09-11T14:35:43.816Z,3.70
2018-09-11T14:38:12.474Z,3.98
2018-09-11T14:40:40.682Z,4.05
2018-09-11T14:43:09.045Z,4.67
2018-09-11T14:45:37.427Z,3.75
2018-09-11T14:48:06.119Z,7.60
2018-09-11T14:50:34.394Z,3.70
2018-09-11T14:53:02.663Z,3.85
2018-09-11T14:55:30.948Z,5.65
2018-09-11T14:57:59.182Z,4.78
2018-09-11T15:00:27.414Z,5.40
2018-09-11T15:02:55.699Z,3.17
2018-09-11T15:05:23.969Z,4.95
2018-09-11T15:07:52.308Z,4.67
2018-09-11T15:10:20.446Z,4.97
2018-09-11T15:12:48.675Z,3.83
2018-09-11T15:15:16.982Z,6.75
2018-09-11T15:17:45.265Z,3.27
2018-09-11T15:20:13.491Z,4.12
2018-09-11T15:22:41.813Z,6.12
2018-09-11T15:25:09.975Z,4.42
2018-09-11T15:27:38.255Z,3.25
2018-09-11T15:30:06.531Z,3.52
2018-09-11T15:32:34.867Z,5.12
2018-09-11T15:35:03.213Z,4.85
2018-09-11T15:37:31.439Z,3.83
2018-09-11T15:39:59.714Z,3.70
2018-09-11T15:42:27.941Z,4.30
2018-09-11T15:44:56.181Z,3.85
2018-09-11T15:47:30.889Z,3.80
2018-09-11T15:49:59.146Z,3.02
2018-09-11T15:52:27.438Z,4.03
2018-09-11T15:54:55.907Z,3.35
2018-09-11T15:57:24.177Z,2.77
2018-09-11T15:59:52.426Z,3.42
2018-09-11T16:02:20.646Z,4.17
2018-09-11T16:04:48.872Z,3.75
2018-09-11T16:07:17.129Z,4.97
2018-09-11T16:09:45.376Z,3.37
2018-09-11T16:12:13.641Z,4.72
2018-09-11T16:14:41.899Z,3.37
2018-09-11T16:17:10.117Z,3.90
2018-09-11T16:19:38.338Z,3.37
2018-09-11T16:22:06.650Z,3.45
2018-09-11T16:24:34.879Z,2.85
2018-09-11T16:27:03.172Z,3.22
2018-09-11T16:29:31.445Z,3.55
2018-09-11T16:31:59.714Z,3.25
2018-09-11T16:34:27.935Z,4.12
2018-09-11T16:36:56.150Z,2.70
2018-09-11T16:39:24.386Z,2.77
2018-09-11T16:41:52.697Z,3.45
2018-09-11T16:44:20.933Z,3.40
2018-09-11T16:46:49.187Z,3.85
2018-09-11T16:49:17.457Z,3.52
2018-09-11T16:51:45.721Z,3.25
2018-09-11T16:54:13.927Z,3.40
2018-09-11T16:56:42.172Z,3.05
2018-09-11T16:59:10.419Z,4.30
2018-09-11T17:01:38.755Z,4.62
2018-09-11T17:04:07.010Z,3.87
2018-09-11T17:06:35.223Z,6.50
2018-09-11T17:09:03.727Z,3.55
2018-09-11T17:11:31.951Z,4.22
2018-09-11T17:14:00.154Z,4.28
2018-09-11T17:16:28.521Z,6.55
2018-09-11T17:18:56.783Z,4.50
2018-09-11T17:21:25.025Z,4.12
2018-09-11T17:23:53.239Z,5.67
2018-09-11T17:26:21.520Z,3.90
2018-09-11T17:28:49.817Z,5.30
2018-09-11T17:31:18.175Z,4.05
2018-09-11T17:33:46.447Z,7.12
2018-09-11T17:36:14.751Z,4.05
2018-09-11T17:38:43.058Z,8.45
2018-09-11T17:41:11.291Z,5.50
2018-09-11T17:43:39.569Z,5.72
2018-09-11T17:46:07.783Z,5.05
2018-09-11T17:48:36.160Z,3.92
2018-09-11T17:51:04.377Z,10.55
2018-09-11T17:53:32.635Z,6.20
2018-09-11T17:56:00.925Z,7.65
2018-09-11T17:58:29.158Z,5.03
2018-09-11T18:00:57.511Z,5.33
2018-09-11T18:03:25.784Z,6.03
2018-09-11T18:05:54.070Z,9.00
2018-09-11T18:08:22.287Z,4.58
2018-09-11T18:10:50.504Z,7.80
2018-09-11T18:13:18.745Z,10.32
2018-09-11T18:15:47.151Z,5.75
2018-09-11T18:18:15.343Z,8.38
2018-09-11T18:20:43.603Z,6.30
2018-09-11T18:23:11.949Z,6.85
2018-09-11T18:25:40.255Z,5.87
2018-09-11T18:28:08.555Z,7.97
2018-09-11T18:30:36.794Z,6.30
2018-09-11T18:33:05.054Z,7.47
2018-09-11T18:35:33.311Z,6.87
2018-09-11T18:38:01.653Z,8.00
2018-09-11T18:40:29.995Z,7.12
2018-09-11T18:42:58.334Z,6.00
2018-09-11T18:45:26.583Z,5.83
2018-09-11T18:47:54.803Z,7.55
2018-09-11T18:50:23.021Z,12.47
2018-09-11T18:52:51.328Z,9.45
2018-09-11T18:55:19.686Z,10.30
2018-09-11T18:57:48.083Z,8.95
2018-09-11T19:00:19.335Z,11.22
2018-09-11T19:02:47.641Z,15.43
2018-09-11T19:05:15.951Z,12.10
2018-09-11T19:07:44.148Z,13.03
2018-09-11T19:10:12.506Z,11.70
2018-09-11T19:12:40.779Z,13.68
2018-09-11T19:15:09.034Z,14.93
2018-09-11T19:17:37.497Z,11.73
2018-09-11T19:20:06.255Z,15.25
2018-09-11T19:22:34.596Z,10.60
2018-09-11T19:25:02.898Z,11.78
2018-09-11T19:27:31.141Z,13.83
2018-09-11T19:29:59.471Z,12.33
2018-09-11T19:32:27.779Z,9.33
2018-09-11T19:34:56.081Z,9.40
2018-09-11T19:37:24.322Z,11.30
2018-09-11T19:39:52.539Z,9.23
2018-09-11T19:42:20.965Z,11.43
2018-09-11T19:44:49.158Z,12.13
2018-09-11T19:47:17.394Z,11.10
2018-09-11T19:49:45.772Z,11.05
2018-09-11T19:52:14.071Z,9.53
2018-09-11T19:54:42.367Z,7.35
2018-09-11T19:57:10.659Z,6.37
2018-09-11T19:59:39.815Z,10.23
2018-09-11T20:02:08.043Z,5.58
2018-09-11T20:04:36.297Z,7.78
2018-09-11T20:07:04.545Z,10.28
2018-09-11T20:09:32.750Z,6.97
2018-09-11T20:12:01.077Z,8.65
2018-09-11T20:14:29.313Z,8.25
2018-09-11T20:16:57.583Z,13.05
2018-09-11T20:19:25.799Z,5.90
2018-09-11T20:21:54.139Z,9.10
2018-09-11T20:24:22.417Z,8.30
2018-09-11T20:26:50.683Z,6.30
2018-09-11T20:29:19.003Z,7.80
2018-09-11T20:31:47.458Z,7.17
2018-09-11T20:34:16.001Z,7.87
2018-09-11T20:36:44.223Z,7.47
2018-09-11T20:39:13.133Z,6.45
2018-09-11T20:41:41.447Z,6.13
2018-09-11T20:44:10.529Z,11.28
2018-09-11T20:46:38.894Z,5.85
2018-09-11T20:49:07.260Z,8.73
2018-09-11T20:51:35.479Z,8.48
2018-09-11T20:54:03.902Z,6.53
2018-09-11T20:56:32.192Z,7.90
2018-09-11T20:59:00.639Z,6.30
2018-09-11T21:02:58.113Z,5.50
2018-09-11T21:05:26.429Z,6.40
2018-09-11T21:07:54.685Z,7.28
2018-09-11T21:10:22.989Z,6.45
2018-09-11T21:12:51.235Z,7.67
2018-09-11T21:15:19.524Z,5.25
2018-09-11T21:17:47.799Z,8.48
2018-09-11T21:20:16.084Z,7.08
2018-09-11T21:22:44.354Z,7.83
2018-09-11T21:25:12.605Z,5.17
2018-09-11T21:27:40.903Z,5.70
2018-09-11T21:30:09.114Z,7.35
2018-09-11T21:32:37.381Z,5.72
2018-09-11T21:35:06.407Z,4.58
2018-09-11T21:37:34.646Z,4.58
2018-09-11T21:40:03.291Z,6.65
2018-09-11T21:42:32.648Z,5.03
2018-09-11T21:45:00.931Z,5.12
2018-09-11T21:47:29.162Z,5.08
2018-09-11T21:49:57.454Z,7.95
2018-09-11T21:52:25.877Z,5.58
2018-09-11T21:54:54.379Z,5.25
2018-09-11T21:57:22.722Z,6.15
2018-09-11T21:59:51.096Z,4.03
2018-09-11T22:02:19.375Z,5.95
2018-09-11T22:04:47.592Z,5.25
2018-09-11T22:07:15.876Z,5.25
2018-09-11T22:09:44.118Z,6.08
2018-09-11T22:12:12.453Z,5.25
2018-09-11T22:14:40.764Z,7.40
2018-09-11T22:17:08.955Z,4.37
2018-09-11T22:19:37.235Z,4.22
2018-09-11T22:22:05.466Z,5.08
2018-09-11T22:24:33.721Z,5.80
2018-09-11T22:27:01.943Z,5.60
2018-09-11T22:29:30.166Z,5.78
2018-09-11T22:31:58.380Z,4.33
2018-09-11T22:34:26.650Z,5.62
2018-09-11T22:36:54.867Z,4.75
2018-09-11T22:39:23.140Z,5.30
2018-09-11T22:41:51.383Z,5.47
2018-09-11T22:44:19.673Z,4.55
2018-09-11T22:46:47.977Z,4.17
2018-09-11T22:49:16.225Z,5.45
2018-09-11T22:51:44.528Z,3.85
2018-09-11T22:54:12.799Z,3.92
2018-09-11T22:56:40.985Z,4.92
2018-09-11T22:59:09.239Z,5.40
2018-09-11T23:01:37.533Z,5.37
2018-09-11T23:04:05.822Z,5.45
2018-09-11T23:06:34.087Z,4.28
2018-09-11T23:09:02.389Z,4.92
2018-09-11T23:11:30.654Z,5.87
2018-09-11T23:13:58.867Z,4.33
2018-09-11T23:16:27.215Z,4.30
2018-09-11T23:18:55.522Z,5.17
2018-09-11T23:21:23.762Z,4.80
2018-09-11T23:23:52.047Z,4.10
2018-09-11T23:26:20.420Z,5.12
2018-09-11T23:28:48.682Z,4.33
2018-09-11T23:31:16.956Z,6.40
2018-09-11T23:33:45.215Z,4.55
2018-09-11T23:36:13.486Z,3.85
2018-09-11T23:38:41.707Z,5.17
2018-09-11T23:41:10.109Z,6.20
2018-09-11T23:43:38.363Z,5.35
2018-09-11T23:46:06.755Z,4.85
2018-09-11T23:48:34.991Z,5.62
2018-09-11T23:51:03.277Z,4.05
2018-09-11T23:53:31.546Z,6.15
2018-09-11T23:55:59.866Z,4.33
2018-09-11T23:58:28.185Z,6.12
